Gardner, MA

5:18 AM EST on December 04, 2016 (GMT -0500)
City of Gardner Greenwood st. | | Change Station

Elev 1089 ft 42.57 °N, 72.00 °W | Updated 15 seconds ago

Overcast
Overcast
30.2 °F
Feels Like 26 °F
N
3.6
Wind Variable Wind from South
Gusts 4.9 mph

Today
High -- | Low -- °F
--% Chance of Precip.
Yesterday
High -- | Low -- °F
Precip. -- in
Pressure 30.15 in
Visibility 10.0 miles
Clouds Overcast 3800 ft
Windchill 26 °F
Dew Point 15 °F
Humidity 53%
Rainfall 0.00 in
Snow Depth Not available.
7:01 AM 4:14 PM
Waxing Crescent, 21% visible
METAR KFIT 040952Z AUTO 33011KT 10SM OVC038 02/M07 A3014 RMK AO2 SLP209 T00171072
Pressure 30.15 in
Visibility 10.0 miles
Clouds Overcast 3800 ft
Windchill 26 °F
Dew Point 15 °F
Humidity 53%
Rainfall 0.00 in
Snow Depth Not available.
7:01 AM 4:14 PM
Waxing Crescent, 21% visible
METAR KFIT 040952Z AUTO 33011KT 10SM OVC038 02/M07 A3014 RMK AO2 SLP209 T00171072

10-Day Weather Forecast

Almanac

Astronomy

Dec. 04, 2016 Rise Set
Actual Time
Civil Twilight
Nautical Twilight
Astronomical Twilight
Moon
Length of Visible Light
Length of Day
Tomorrow will be .
, % of the Moon is Illuminated

Today's Extremes

State Highs State Lows

Community

WunderPhotos

Upload Photos

1,955,591 photos uploaded!

WunderBlog® & News

Nearby

Air Quality

  Air Quality AQ Index Pollutant
Not available.

Snow Depth

Station Depth Elevation

Earthquake Activity

City Distance Mag. Time & Date
Minimum magnitude displayed is 2.5.

Coastal Water Temperatures

Place Temperature

Stations

Nearby Weather Stations

Station Location Temp. Windchill Dew Point Humidity Wind Precip. Elev Updated Type
                   

Watches & Warnings

There are currently no watches in effect.